Airfield :
LOGIN :

Register | Disclaimer

   EN    FR    IT 

 










Legend :    VFR   Marginal VFR   IFR   Intensive IFR   Very Intensive IFR
Visi :
Ceiling :
>= 8 km
>= 3000ft
5 to 8 km
1000 to 3000 ft
1500m to 5 km
500 to 1000 ft
800 to 1500m
200 to 500 ft
< 800m
< 200 ft
Symbols :   Thunderstorms  Fog  Heavy snow  Heavy precipitations  Wind > 20 kt
SIGMETs :     Misc.  Thunderstorms  Icing  Turbulence  Mountain Waves  Volcanic Ashes






- Airport Elevation : 33 ft
- IATA code : MHZ


EGUN - RAF Mildenhall

CURRENT METAR :
  • 280710Z COR 16005KT 1000 BR SCT040 04/04 A2974 RMK AO2A SLP074 $ COR 0718

EXPIRED METARs :
  • 280658Z 15004KT 1400 R28/P1500 BR SCT040 04/04 A2974 RMK AO2A SLP074 T00410041 $
  • 280555Z 18005KT 9000 BR SCT040 04/04 A2973 RMK AO2A SLP071 T00400040 10086 20038 51006 $
  • 280455Z 19005KT 9000 BR SCT040 05/05 A2973 RMK AO2A SLP071 T00500050 $

TAF AMD TAF EGUN
Valid from the 28 at 07:00 until the 29 at 10:00 UTC


280714Z 2807/2910 16004KT 1200 BR SCT040 QNH2973INS
TEMPO 2808/2810 0800 FG
BECMG 2809/2810 16006KT 8000 BR SCT016 BKN030 QNH2977INS
TEMPO 2813/2817 -SHRA BKN015
BECMG 2816/2817 11006KT 8000 BR BKN009 QNH2984INS
TEMPO 2817/2819 1400 BR
BECMG 2819/2820 09004KT 3200 -SHRA MIFG BKN005 QNH2987INS
TEMPO 2821/2902 0800 FG
BECMG 2904/2905 04004KT 3200 BR MIFG BKN014 QNH3002INS TX10/2812Z TN06/2904Z



MET'MAP, your aeronautical weather chart ! - Copyright ORBIFLY December 2007 - Disclaimer

ORBIFLY MET'MAP TEAM :

Programming & Development : Alexandra Zaïnal
Original concept : Baudouin d'Aumeries
Technical & hardware support : Manuel Goepfert
Assistance : Marc-Olivier Méhu




SOURCES & CREDITS :

   NOAA